createdAt,value
2023-05-15T00:03:41.280Z,45.24
2023-05-15T00:08:41.011Z,45.35
2023-05-15T00:13:40.361Z,45.38
2023-05-15T00:18:39.243Z,45.38
2023-05-15T00:23:38.765Z,45.37
2023-05-15T00:28:37.346Z,45.53
2023-05-15T00:33:36.603Z,45.60
2023-05-15T00:38:36.249Z,45.63
2023-05-15T00:43:36.639Z,45.72
2023-05-15T00:48:36.813Z,45.74
2023-05-15T00:53:37.765Z,45.94
2023-05-15T00:58:40.623Z,45.92
2023-05-15T01:03:40.153Z,45.90
2023-05-15T01:08:47.675Z,45.90
2023-05-15T01:13:47.330Z,45.79
2023-05-15T01:18:46.455Z,45.74
2023-05-15T01:24:02.187Z,45.74
2023-05-15T01:29:10.794Z,45.76
2023-05-15T01:34:14.647Z,45.72
2023-05-15T01:39:23.329Z,45.75
2023-05-15T01:44:29.631Z,45.91
2023-05-15T01:49:32.266Z,45.92
2023-05-15T01:54:32.641Z,45.94
2023-05-15T01:59:34.013Z,45.88
2023-05-15T02:04:37.090Z,46.10
2023-05-15T02:09:38.363Z,46.18
2023-05-15T02:14:38.654Z,46.23
2023-05-15T02:19:38.120Z,46.33
2023-05-15T02:24:37.454Z,46.32
2023-05-15T02:29:51.215Z,46.44
2023-05-15T02:35:09.217Z,46.58
2023-05-15T02:40:14.018Z,46.65
2023-05-15T02:45:17.282Z,46.72
2023-05-15T02:50:17.615Z,46.92
2023-05-15T02:55:16.888Z,47.32
2023-05-15T03:00:19.654Z,47.70
2023-05-15T03:05:19.829Z,47.88
2023-05-15T03:10:21.362Z,47.79
2023-05-15T03:15:21.457Z,47.87
2023-05-15T03:20:21.070Z,47.97
2023-05-15T03:25:21.217Z,48.06
2023-05-15T03:30:20.538Z,48.33
2023-05-15T03:35:19.540Z,48.35
2023-05-15T03:40:19.756Z,48.29
2023-05-15T03:45:19.399Z,48.40
2023-05-15T03:50:20.737Z,48.49
2023-05-15T03:55:19.817Z,48.95
2023-05-15T04:00:20.274Z,49.40
2023-05-15T04:05:22.025Z,49.21
2023-05-15T04:10:21.851Z,48.97
2023-05-15T04:15:24.308Z,49.20
2023-05-15T04:20:26.045Z,49.17
2023-05-15T04:25:25.793Z,49.06
2023-05-15T04:30:24.873Z,49.78
2023-05-15T04:35:23.828Z,50.44
2023-05-15T04:40:23.102Z,50.72
2023-05-15T04:45:22.268Z,50.95
2023-05-15T04:50:22.192Z,51.18
2023-05-15T04:55:22.218Z,51.39
2023-05-15T05:00:22.858Z,51.35
2023-05-15T05:05:22.711Z,50.94
2023-05-15T05:10:22.216Z,50.65
2023-05-15T05:15:21.694Z,50.94
2023-05-15T05:20:21.706Z,51.01
2023-05-15T05:25:21.099Z,50.47
2023-05-15T05:30:20.885Z,50.49
2023-05-15T05:35:19.825Z,50.74
2023-05-15T05:40:19.971Z,50.90
2023-05-15T05:45:19.858Z,50.75
2023-05-15T05:50:19.143Z,50.39
2023-05-15T05:55:43.944Z,49.73
2023-05-15T06:00:45.169Z,49.13
2023-05-15T06:05:44.219Z,48.80
2023-05-15T06:10:43.282Z,48.44
2023-05-15T06:15:42.918Z,48.26
2023-05-15T06:20:44.140Z,47.60
2023-05-15T06:25:43.547Z,47.60
2023-05-15T06:30:42.868Z,47.70
2023-05-15T06:35:42.838Z,47.88
2023-05-15T06:40:42.125Z,48.56
2023-05-15T06:45:41.451Z,49.66
2023-05-15T06:50:40.741Z,50.97
2023-05-15T06:55:39.792Z,51.77
2023-05-15T07:00:38.784Z,52.76
2023-05-15T07:05:38.276Z,53.81
2023-05-15T07:10:37.925Z,54.95
2023-05-15T07:15:37.544Z,56.07
2023-05-15T07:20:37.128Z,57.15
2023-05-15T07:25:36.821Z,58.14
2023-05-15T07:30:35.773Z,59.19
2023-05-15T07:35:34.396Z,60.56
2023-05-15T07:40:33.963Z,62.15
2023-05-15T07:45:33.643Z,63.18
2023-05-15T07:50:33.408Z,64.17
2023-05-15T07:55:32.874Z,65.32
2023-05-15T08:00:32.364Z,65.85
2023-05-15T08:05:31.883Z,66.19
2023-05-15T08:10:30.434Z,66.57
2023-05-15T08:15:29.583Z,67.14
2023-05-15T08:20:28.819Z,67.18
2023-05-15T08:25:28.037Z,66.58
2023-05-15T08:30:27.743Z,65.92
2023-05-15T08:35:27.165Z,66.21
2023-05-15T08:40:38.362Z,66.39
2023-05-15T08:45:39.529Z,66.26
2023-05-15T08:50:40.991Z,66.25
2023-05-15T08:55:40.764Z,66.14
2023-05-15T09:00:39.668Z,66.04
2023-05-15T09:05:40.080Z,65.84
2023-05-15T09:10:40.101Z,65.87
2023-05-15T09:15:40.298Z,66.22
2023-05-15T09:20:41.203Z,66.77
2023-05-15T09:25:44.938Z,67.47
2023-05-15T09:30:46.619Z,68.07
2023-05-15T09:35:46.288Z,68.61
2023-05-15T09:40:45.273Z,68.97
2023-05-15T09:45:47.901Z,69.63
2023-05-15T09:50:46.840Z,70.06
2023-05-15T09:55:49.246Z,70.43
2023-05-15T10:00:50.038Z,70.56
2023-05-15T10:05:49.306Z,70.80
2023-05-15T10:10:50.301Z,71.32
2023-05-15T10:15:50.733Z,71.79
2023-05-15T10:20:50.820Z,72.04
2023-05-15T10:26:03.291Z,72.07
2023-05-15T10:31:06.244Z,71.57
2023-05-15T10:36:07.787Z,71.19
2023-05-15T10:41:17.140Z,71.00
2023-05-15T10:46:17.837Z,71.07
2023-05-15T10:51:30.929Z,70.97
2023-05-15T10:56:35.434Z,70.68
2023-05-15T11:01:37.432Z,71.07
2023-05-15T11:06:36.838Z,71.40
2023-05-15T11:12:00.489Z,71.92
2023-05-15T11:17:05.937Z,72.45
2023-05-15T11:22:20.074Z,72.94
2023-05-15T11:27:23.670Z,73.38
2023-05-15T11:32:59.905Z,73.60
2023-05-15T11:38:03.496Z,73.90
2023-05-15T11:43:18.401Z,74.21
2023-05-15T11:48:21.898Z,74.54
2023-05-15T11:53:23.351Z,74.87
2023-05-15T11:58:24.960Z,75.18
2023-05-15T12:03:34.313Z,75.52
2023-05-15T12:08:38.626Z,75.85
2023-05-15T12:13:38.350Z,76.31
2023-05-15T12:18:38.205Z,76.60
2023-05-15T12:23:37.714Z,76.85
2023-05-15T12:28:40.006Z,77.04
2023-05-15T12:33:40.044Z,77.36
2023-05-15T12:38:42.040Z,77.77
2023-05-15T12:43:42.681Z,78.07
2023-05-15T12:48:43.709Z,78.28
2023-05-15T12:53:44.922Z,78.38
2023-05-15T12:58:44.040Z,78.43
2023-05-15T13:03:45.859Z,78.40
2023-05-15T13:08:47.714Z,78.45
2023-05-15T13:13:52.054Z,78.55
2023-05-15T13:18:51.380Z,78.68
2023-05-15T13:23:51.872Z,78.72
2023-05-15T13:28:52.169Z,78.82
2023-05-15T13:33:51.905Z,79.00
2023-05-15T13:38:50.388Z,79.14
2023-05-15T13:43:49.598Z,79.20
2023-05-15T13:48:49.145Z,79.29
2023-05-15T13:53:48.340Z,79.39
2023-05-15T13:58:48.381Z,79.64
2023-05-15T14:03:47.529Z,79.78
2023-05-15T14:08:47.070Z,79.76
2023-05-15T14:13:47.601Z,79.72
2023-05-15T14:18:47.274Z,79.61
2023-05-15T14:23:46.584Z,79.64
2023-05-15T14:28:46.440Z,79.61
2023-05-15T14:33:46.435Z,79.66
2023-05-15T14:38:48.317Z,79.73
2023-05-15T14:43:47.627Z,79.49
2023-05-15T14:48:46.945Z,79.27
2023-05-15T14:53:46.185Z,79.06
2023-05-15T14:58:46.715Z,78.86
2023-05-15T15:03:46.398Z,78.68
2023-05-15T15:08:45.784Z,78.66
2023-05-15T15:13:45.432Z,78.64
2023-05-15T15:18:44.928Z,78.66
2023-05-15T15:23:44.967Z,78.71
2023-05-15T15:28:44.065Z,78.71
2023-05-15T15:33:43.172Z,78.76
2023-05-15T15:38:44.050Z,78.89
2023-05-15T15:43:43.358Z,78.96
2023-05-15T15:48:42.747Z,79.32
2023-05-15T15:53:43.294Z,78.57
2023-05-15T15:58:43.330Z,77.30
2023-05-15T16:03:42.597Z,76.16
2023-05-15T16:08:42.493Z,75.31
2023-05-15T16:13:41.708Z,73.96
2023-05-15T16:18:40.816Z,72.54
2023-05-15T16:23:44.512Z,71.56
2023-05-15T16:28:45.644Z,70.72
2023-05-15T16:33:44.890Z,70.66
2023-05-15T16:38:46.996Z,71.00
2023-05-15T16:43:46.698Z,71.24
2023-05-15T16:48:51.834Z,71.57
2023-05-15T16:53:56.322Z,71.82
2023-05-15T16:58:58.732Z,72.06
2023-05-15T17:04:00.224Z,72.19
2023-05-15T17:09:00.527Z,72.40
2023-05-15T17:14:01.141Z,72.76
2023-05-15T17:19:01.369Z,72.97
2023-05-15T17:24:01.267Z,73.44
2023-05-15T17:29:00.904Z,73.93
2023-05-15T17:34:01.149Z,74.42
2023-05-15T17:39:00.689Z,74.81
2023-05-15T17:43:59.892Z,75.18
2023-05-15T17:48:59.850Z,75.51
2023-05-15T17:53:58.397Z,75.86
2023-05-15T17:58:58.156Z,76.21
2023-05-15T18:03:58.834Z,76.51
2023-05-15T18:08:58.478Z,76.79
2023-05-15T18:13:57.544Z,77.04
2023-05-15T18:18:57.300Z,77.28
2023-05-15T18:23:57.321Z,77.54
2023-05-15T18:28:56.977Z,77.74
2023-05-15T18:33:56.615Z,77.99
2023-05-15T18:38:56.354Z,78.21
2023-05-15T18:43:56.106Z,78.42
2023-05-15T18:48:56.184Z,78.64
2023-05-15T18:53:55.518Z,79.17
2023-05-15T18:58:54.869Z,79.51
2023-05-15T19:03:53.815Z,79.82
2023-05-15T19:08:53.888Z,80.24
2023-05-15T19:13:54.864Z,80.39
2023-05-15T19:18:54.626Z,80.43
2023-05-15T19:23:54.032Z,80.32
2023-05-15T19:28:54.746Z,80.14
2023-05-15T19:33:56.134Z,80.10
2023-05-15T19:38:56.162Z,80.17
2023-05-15T19:43:56.235Z,80.23
2023-05-15T19:48:55.694Z,80.32
2023-05-15T19:53:54.914Z,80.42
2023-05-15T19:58:54.643Z,80.52
2023-05-15T20:03:54.641Z,80.78
2023-05-15T20:08:53.951Z,80.85
2023-05-15T20:13:53.433Z,80.74
2023-05-15T20:18:55.279Z,80.83
2023-05-15T20:23:54.527Z,80.98
2023-05-15T20:28:53.158Z,81.21
2023-05-15T20:33:52.929Z,81.47
2023-05-15T20:38:52.581Z,81.67
2023-05-15T20:43:51.736Z,81.89
2023-05-15T20:48:51.304Z,82.05
2023-05-15T20:53:50.456Z,82.15
2023-05-15T20:58:49.621Z,82.42
2023-05-15T21:03:49.029Z,82.62
2023-05-15T21:08:48.174Z,82.88
2023-05-15T21:13:47.999Z,83.15
2023-05-15T21:18:49.120Z,83.26
2023-05-15T21:23:49.697Z,83.51
2023-05-15T21:28:49.019Z,83.76
2023-05-15T21:33:48.052Z,83.95
2023-05-15T21:38:49.378Z,84.13
2023-05-15T21:43:48.360Z,84.23
2023-05-15T21:48:49.770Z,84.29
2023-05-15T21:53:49.144Z,84.36
2023-05-15T21:58:48.620Z,84.30
2023-05-15T22:03:47.530Z,84.28
2023-05-15T22:08:46.994Z,84.14
2023-05-15T22:13:46.436Z,83.98
2023-05-15T22:18:47.805Z,83.98
2023-05-15T22:23:47.847Z,84.07
2023-05-15T22:28:48.504Z,84.08
2023-05-15T22:33:47.995Z,84.22
2023-05-15T22:38:46.855Z,84.33
2023-05-15T22:43:46.241Z,84.38
2023-05-15T22:48:45.045Z,84.41
2023-05-15T22:53:44.598Z,84.46
2023-05-15T22:58:43.767Z,84.44
2023-05-15T23:03:43.284Z,84.36
2023-05-15T23:08:42.685Z,84.19
2023-05-15T23:13:41.832Z,83.95
2023-05-15T23:18:41.061Z,83.68
2023-05-15T23:23:40.400Z,83.44
2023-05-15T23:28:40.076Z,83.32
2023-05-15T23:33:39.761Z,83.19
2023-05-15T23:38:40.022Z,83.16
2023-05-15T23:43:39.319Z,83.15
2023-05-15T23:48:38.456Z,83.18
2023-05-15T23:53:38.688Z,83.20
2023-05-15T23:58:38.487Z,83.24
